ADDS TAF Data INFO
IDs: Format: Raw Decoded Include METARs

Data at: 2044 UTC 15 Aug 2018

KELP 151951Z 16006G19KT 10SM FEW100 FEW130 SCT250 34/08 A3003 RMK AO2 LTG DSNT N-E SLP083 CB DSNT N-NE AND E TCU DSNT SE-SW SHRA DSNT N-NE AND E T03440078

KELP 151736Z 1518/1618 16005KT P6SM FEW080 BKN250
  FM152200 18007KT P6SM SCT080 BKN200
  FM160300 26010KT P6SM FEW100 BKN150 OVC220